Kota Ria — 9VJK4 — position and weather

sailwx.info

Track history (hours):
 
Tides and Currents Weather Stations Pressure Air Temp Water Temp Dewpoint Dewpoint Depression Visibility Wind Speed Wind Dir Waves Ship Positions

Kota Ria

Last reported at 2014-Sep-17 19:33 UTC. Time now 2014-Sep-19 09:55 UTC.
Position N 01°15' E 104°02'.

Length 146 m; draft 6.3 m.

Type: Cargo ship. MMSI: 565050000.

Date/timePositionNaut miles runAvg speedWind from/ knotsBaromVisibWave heightAir tempDewpointWater temp
2014-Sep-17 19:33N 01°15' E 104°02'1313.1
2014-Sep-17 18:34N 01°11' E 103°50'7 7.4
2014-Sep-17 17:33N 01°17' E 103°46'0 0.5
2014-Sep-17 16:34N 01°17' E 103°46'0 0.0
2014-Sep-17 15:34N 01°17' E 103°46'0 0.1
2014-Sep-17 14:34N 01°17' E 103°46'0 0.1
2014-Sep-17 13:33N 01°17' E 103°46'0 0.1
2014-Sep-17 12:34N 01°17' E 103°46'0 0.1
2014-Sep-17 11:34N 01°17' E 103°46'0 0.0
2014-Sep-17 10:34N 01°17' E 103°46'0 0.0
2014-Sep-17 09:33N 01°17' E 103°46'0 0.0
2014-Sep-17 08:34N 01°17' E 103°46'0 0.0
2014-Sep-17 07:33N 01°17' E 103°46'0 0.1
2014-Sep-17 06:33N 01°17' E 103°46'0 0.1
2014-Sep-17 05:33N 01°17' E 103°46'0 0.0
2014-Sep-17 04:34N 01°17' E 103°46'0 0.0
2014-Sep-17 03:34N 01°17' E 103°46'0 0.0
2014-Sep-17 02:33N 01°17' E 103°46'0 0.0
2014-Sep-17 01:33N 01°17' E 103°46'0 0.1
2014-Sep-17 00:33N 01°17' E 103°46'0 0.1
2014-Sep-16 23:34N 01°17' E 103°46'0 0.1
2014-Sep-16 22:33N 01°17' E 103°46'0 0.1
2014-Sep-16 21:33N 01°17' E 103°46'0 0.1
2014-Sep-16 20:34N 01°17' E 103°46'1 1.3
2014-Sep-16 19:34N 01°17' E 103°45'8 7.8
2014-Sep-16 18:34N 01°13' E 103°52'5 5.2
2014-Sep-16 17:33N 01°15' E 103°57'5 5.2
2014-Sep-16 16:34N 01°16' E 104°02'  
2014-Sep-10 08:33N 01°15' E 104°04'1611.9
2014-Sep-10 07:14N 01°13' E 103°48'5 7.3
2014-Sep-10 06:33N 01°17' E 103°46'0 0.2
2014-Sep-10 05:24N 01°17' E 103°46'0 0.0
2014-Sep-10 04:33N 01°17' E 103°46'0 0.0
2014-Sep-10 03:33N 01°17' E 103°46'0 0.0
2014-Sep-10 02:33N 01°17' E 103°46'0 0.0
2014-Sep-10 01:18N 01°17' E 103°46'0 0.0
2014-Sep-10 00:21N 01°17' E 103°46'0 0.0
2014-Sep-09 23:33N 01°17' E 103°46'0 0.0
2014-Sep-09 22:33N 01°17' E 103°46'0 0.0
2014-Sep-09 21:09N 01°17' E 103°46'0 0.0
2014-Sep-09 18:18N 01°17' E 103°46'0 0.0
2014-Sep-09 17:33N 01°17' E 103°46'0 0.0
2014-Sep-09 16:29N 01°17' E 103°46'0 0.0
2014-Sep-09 15:29N 01°17' E 103°46'0 0.0
2014-Sep-09 14:20N 01°17' E 103°46'0 0.0
2014-Sep-09 13:17N 01°17' E 103°46'0 0.0
2014-Sep-09 12:29N 01°17' E 103°46'0 0.0
2014-Sep-09 11:26N 01°17' E 103°46'0 0.0
2014-Sep-09 10:08N 01°17' E 103°46'0 0.1
2014-Sep-09 09:26N 01°17' E 103°46'0 0.1
2014-Sep-09 08:32N 01°17' E 103°46'0 0.0
2014-Sep-09 06:08N 01°17' E 103°46'0 0.0
2014-Sep-09 05:17N 01°17' E 103°46'0 0.0
2014-Sep-09 04:11N 01°17' E 103°46'0 0.0
2014-Sep-09 03:14N 01°17' E 103°46'0 0.0
2014-Sep-09 02:23N 01°17' E 103°46'0 0.1
2014-Sep-09 01:29N 01°17' E 103°46'2 2.0
2014-Sep-09 00:33N 01°17' E 103°44'1 1.2
2014-Sep-08 23:34N 01°16' E 103°45'7 7.2
2014-Sep-08 22:34N 01°13' E 103°51'8 7.8
2014-Sep-08 21:33N 01°15' E 103°59'1211.9
2014-Sep-08 20:32N 01°17' E 104°11'  
Track history (hours):
 
Tides and Currents Weather Stations Pressure Air Temp Water Temp Dewpoint Dewpoint Depression Visibility Wind Speed Wind Dir Waves Ship Positions

Kota Ria

Last reported at 2014-Sep-17 19:33 UTC. Time now 2014-Sep-19 09:55 UTC.
Position N 01°15' E 104°02'.

Length 146 m; draft 6.3 m.

Type: Cargo ship. MMSI: 565050000.

Date/timePositionNaut miles runAvg speedWind from/ knotsBaromVisibWave heightAir tempDewpointWater temp
2014-Sep-17 19:33N 01°15' E 104°02'1313.1
2014-Sep-17 18:34N 01°11' E 103°50'7 7.4
2014-Sep-17 17:33N 01°17' E 103°46'0 0.5
2014-Sep-17 16:34N 01°17' E 103°46'0 0.0
2014-Sep-17 15:34N 01°17' E 103°46'0 0.1
2014-Sep-17 14:34N 01°17' E 103°46'0 0.1
2014-Sep-17 13:33N 01°17' E 103°46'0 0.1
2014-Sep-17 12:34N 01°17' E 103°46'0 0.1
2014-Sep-17 11:34N 01°17' E 103°46'0 0.0
2014-Sep-17 10:34N 01°17' E 103°46'0 0.0
2014-Sep-17 09:33N 01°17' E 103°46'0 0.0
2014-Sep-17 08:34N 01°17' E 103°46'0 0.0
2014-Sep-17 07:33N 01°17' E 103°46'0 0.1
2014-Sep-17 06:33N 01°17' E 103°46'0 0.1
2014-Sep-17 05:33N 01°17' E 103°46'0 0.0
2014-Sep-17 04:34N 01°17' E 103°46'0 0.0
2014-Sep-17 03:34N 01°17' E 103°46'0 0.0
2014-Sep-17 02:33N 01°17' E 103°46'0 0.0
2014-Sep-17 01:33N 01°17' E 103°46'0 0.1
2014-Sep-17 00:33N 01°17' E 103°46'0 0.1
2014-Sep-16 23:34N 01°17' E 103°46'0 0.1
2014-Sep-16 22:33N 01°17' E 103°46'0 0.1
2014-Sep-16 21:33N 01°17' E 103°46'0 0.1
2014-Sep-16 20:34N 01°17' E 103°46'1 1.3
2014-Sep-16 19:34N 01°17' E 103°45'8 7.8
2014-Sep-16 18:34N 01°13' E 103°52'5 5.2
2014-Sep-16 17:33N 01°15' E 103°57'5 5.2
2014-Sep-16 16:34N 01°16' E 104°02'  
2014-Sep-10 08:33N 01°15' E 104°04'1611.9
2014-Sep-10 07:14N 01°13' E 103°48'5 7.3
2014-Sep-10 06:33N 01°17' E 103°46'0 0.2
2014-Sep-10 05:24N 01°17' E 103°46'0 0.0
2014-Sep-10 04:33N 01°17' E 103°46'0 0.0
2014-Sep-10 03:33N 01°17' E 103°46'0 0.0
2014-Sep-10 02:33N 01°17' E 103°46'0 0.0
2014-Sep-10 01:18N 01°17' E 103°46'0 0.0
2014-Sep-10 00:21N 01°17' E 103°46'0 0.0
2014-Sep-09 23:33N 01°17' E 103°46'0 0.0
2014-Sep-09 22:33N 01°17' E 103°46'0 0.0
2014-Sep-09 21:09N 01°17' E 103°46'0 0.0
2014-Sep-09 18:18N 01°17' E 103°46'0 0.0
2014-Sep-09 17:33N 01°17' E 103°46'0 0.0
2014-Sep-09 16:29N 01°17' E 103°46'0 0.0
2014-Sep-09 15:29N 01°17' E 103°46'0 0.0
2014-Sep-09 14:20N 01°17' E 103°46'0 0.0
2014-Sep-09 13:17N 01°17' E 103°46'0 0.0
2014-Sep-09 12:29N 01°17' E 103°46'0 0.0
2014-Sep-09 11:26N 01°17' E 103°46'0 0.0
2014-Sep-09 10:08N 01°17' E 103°46'0 0.1
2014-Sep-09 09:26N 01°17' E 103°46'0 0.1
2014-Sep-09 08:32N 01°17' E 103°46'0 0.0
2014-Sep-09 06:08N 01°17' E 103°46'0 0.0
2014-Sep-09 05:17N 01°17' E 103°46'0 0.0
2014-Sep-09 04:11N 01°17' E 103°46'0 0.0
2014-Sep-09 03:14N 01°17' E 103°46'0 0.0
2014-Sep-09 02:23N 01°17' E 103°46'0 0.1
2014-Sep-09 01:29N 01°17' E 103°46'2 2.0
2014-Sep-09 00:33N 01°17' E 103°44'1 1.2
2014-Sep-08 23:34N 01°16' E 103°45'7 7.2
2014-Sep-08 22:34N 01°13' E 103°51'8 7.8
2014-Sep-08 21:33N 01°15' E 103°59'1211.9
2014-Sep-08 20:32N 01°17' E 104°11'  

Dump ship's entire track history